createdAt,value
2023-03-27T16:47:54.732Z,100869.31
2023-03-27T16:48:08.435Z,100870.00
2023-03-27T16:48:21.334Z,100874.09
2023-03-27T16:48:34.002Z,100875.72
2023-03-27T16:48:46.654Z,100874.59
2023-03-27T16:49:00.466Z,100877.06
2023-03-27T16:49:13.242Z,100875.00
2023-03-27T16:49:26.311Z,100880.13
2023-03-27T16:49:38.964Z,100875.56
2023-03-27T16:50:07.998Z,100877.09
2023-03-27T16:50:29.137Z,100885.72
2023-03-27T16:50:42.038Z,100881.09
2023-03-27T16:50:56.071Z,100886.22
2023-03-27T16:51:08.751Z,100879.97
2023-03-27T16:51:23.842Z,100882.63
2023-03-27T16:51:37.497Z,100884.31
2023-03-27T16:51:50.469Z,100875.44
2023-03-27T16:52:03.368Z,100886.97
2023-03-27T16:52:16.255Z,100888.78
2023-03-27T16:52:28.997Z,100886.13
2023-03-27T16:52:42.566Z,100888.03
2023-03-27T16:52:55.475Z,100887.94
2023-03-27T16:53:08.068Z,100887.94
2023-03-27T16:53:20.784Z,100876.34
2023-03-27T16:53:33.341Z,100887.75
2023-03-27T16:53:46.090Z,100886.03
2023-03-27T16:53:59.712Z,100880.47
2023-03-27T16:54:12.608Z,100891.16
2023-03-27T16:54:25.718Z,100891.16
2023-03-27T16:54:38.376Z,100890.31
2023-03-27T16:54:51.153Z,100889.47
2023-03-27T16:55:07.166Z,100886.91
2023-03-27T16:55:21.495Z,100890.50
2023-03-27T16:55:34.729Z,100894.09
2023-03-27T16:55:48.404Z,100886.97
2023-03-27T16:56:01.490Z,100887.09
2023-03-27T16:56:14.310Z,100890.69
2023-03-27T16:56:27.077Z,100888.97
2023-03-27T16:56:40.851Z,100886.31
2023-03-27T16:56:53.617Z,100896.94
2023-03-27T16:57:06.501Z,100891.72
2023-03-27T16:57:19.246Z,100889.16
2023-03-27T16:57:32.020Z,100897.22
2023-03-27T16:57:46.727Z,100889.34
2023-03-27T16:57:59.396Z,100899.13
2023-03-27T16:58:12.025Z,100897.38
2023-03-27T16:58:24.635Z,100901.00
2023-03-27T16:58:37.267Z,100893.97
2023-03-27T16:58:49.854Z,100896.75
2023-03-27T16:59:04.687Z,100901.16
2023-03-27T16:59:17.567Z,100903.06
2023-03-27T16:59:30.319Z,100901.38
2023-03-27T16:59:42.935Z,100899.63
2023-03-27T16:59:55.905Z,100894.31
2023-03-27T17:00:10.049Z,100896.81
2023-03-27T17:00:24.450Z,100901.16
2023-03-27T17:00:37.070Z,100902.13
2023-03-27T17:00:49.702Z,100895.84
2023-03-27T17:01:02.390Z,100903.06
2023-03-27T17:01:15.095Z,100897.75
2023-03-27T17:01:28.911Z,100900.31
2023-03-27T17:01:41.748Z,100907.38
2023-03-27T17:01:54.824Z,100902.22
2023-03-27T17:02:07.576Z,100903.19
2023-03-27T17:02:20.360Z,100899.63
2023-03-27T17:02:34.794Z,100898.78
2023-03-27T17:02:47.818Z,100907.53
2023-03-27T17:03:03.195Z,100905.72
2023-03-27T17:03:16.464Z,100901.38
2023-03-27T17:03:29.062Z,100904.94
2023-03-27T17:03:42.262Z,100908.56
2023-03-27T17:03:55.878Z,100906.00
2023-03-27T17:04:08.716Z,100906.69
2023-03-27T17:04:21.973Z,100906.47
2023-03-27T17:04:34.593Z,100911.03
2023-03-27T17:04:47.266Z,100911.13
2023-03-27T17:04:59.923Z,100904.09
2023-03-27T17:05:14.842Z,100908.66
2023-03-27T17:05:33.858Z,100913.09
2023-03-27T17:05:46.670Z,100909.53
2023-03-27T17:06:00.031Z,100910.38
2023-03-27T17:06:15.252Z,100907.81
2023-03-27T17:06:27.873Z,100913.19
2023-03-27T17:06:40.917Z,100909.69
2023-03-27T17:06:53.731Z,100908.75
2023-03-27T17:07:06.509Z,100908.00
2023-03-27T17:07:20.389Z,100906.34
2023-03-27T17:07:33.109Z,100913.66
2023-03-27T17:07:46.972Z,100907.56
2023-03-27T17:07:59.718Z,100904.16
2023-03-27T17:08:13.211Z,100913.03
2023-03-27T17:08:25.881Z,100921.97
2023-03-27T17:08:39.734Z,100917.78
2023-03-27T17:08:55.448Z,100922.16
2023-03-27T17:09:09.638Z,100916.94
2023-03-27T17:09:22.762Z,100915.13
2023-03-27T17:09:37.259Z,100917.84
2023-03-27T17:09:50.004Z,100919.75
2023-03-27T17:10:03.467Z,100920.78
2023-03-27T17:10:16.910Z,100919.84
2023-03-27T17:10:33.274Z,100921.75
2023-03-27T17:10:46.102Z,100925.44
2023-03-27T17:11:03.022Z,100915.75
2023-03-27T17:11:15.806Z,100924.56
2023-03-27T17:11:28.428Z,100920.28
2023-03-27T17:11:42.489Z,100917.72
2023-03-27T17:11:55.353Z,100929.28
2023-03-27T17:12:09.817Z,100919.69
2023-03-27T17:12:22.422Z,100927.59
2023-03-27T17:12:35.146Z,100921.31
2023-03-27T17:12:47.921Z,100929.19
2023-03-27T17:13:01.845Z,100927.47
2023-03-27T17:13:14.602Z,100924.94
2023-03-27T17:13:27.365Z,100926.81
2023-03-27T17:13:43.382Z,100932.13
2023-03-27T17:13:56.441Z,100933.03
2023-03-27T17:14:10.547Z,100927.94
2023-03-27T17:14:23.451Z,100928.00
2023-03-27T17:14:36.214Z,100928.00
2023-03-27T17:14:48.793Z,100927.16
2023-03-27T17:15:01.448Z,100930.72
2023-03-27T17:15:16.777Z,100931.63
2023-03-27T17:15:30.694Z,100929.19
2023-03-27T17:15:43.466Z,100924.00
2023-03-27T17:15:56.338Z,100932.88
2023-03-27T17:16:09.304Z,100924.25
2023-03-27T17:16:22.073Z,100932.97
2023-03-27T17:16:35.931Z,100930.34
2023-03-27T17:16:49.056Z,100928.53
2023-03-27T17:17:01.847Z,100929.44
2023-03-27T17:17:14.456Z,100928.53
2023-03-27T17:17:27.623Z,100937.34
2023-03-27T17:17:40.364Z,100933.91
2023-03-27T17:17:54.292Z,100938.44
2023-03-27T17:18:08.279Z,100931.44
2023-03-27T17:18:21.081Z,100936.81
2023-03-27T17:18:33.694Z,100932.56
2023-03-27T17:18:46.506Z,100937.59
2023-03-27T17:19:00.223Z,100932.22
2023-03-27T17:19:12.992Z,100932.38
2023-03-27T17:19:25.776Z,100931.59
2023-03-27T17:19:38.545Z,100933.47
2023-03-27T17:19:51.156Z,100934.34
2023-03-27T17:20:07.902Z,100937.09
2023-03-27T17:20:20.670Z,100935.34
2023-03-27T17:20:34.713Z,100937.25
2023-03-27T17:20:47.407Z,100931.09
2023-03-27T17:20:59.998Z,100938.13
2023-03-27T17:21:13.727Z,100935.34
2023-03-27T17:21:27.646Z,100936.25
2023-03-27T17:21:40.412Z,100928.16
2023-03-27T17:21:53.178Z,100937.84
2023-03-27T17:22:05.946Z,100938.00
2023-03-27T17:22:18.710Z,100938.19
2023-03-27T17:22:31.475Z,100938.25
2023-03-27T17:22:45.742Z,100936.38
2023-03-27T17:22:58.380Z,100939.81
2023-03-27T17:23:11.441Z,100935.47
2023-03-27T17:23:24.557Z,100936.50
2023-03-27T17:23:37.211Z,100932.19
2023-03-27T17:23:52.841Z,100939.31
2023-03-27T17:24:05.754Z,100937.59
2023-03-27T17:24:19.911Z,100940.25
2023-03-27T17:24:45.732Z,100937.59
2023-03-27T17:25:09.976Z,100935.88
2023-03-27T17:25:23.547Z,100936.84
2023-03-27T17:25:36.675Z,100935.88
2023-03-27T17:25:50.102Z,100935.03
2023-03-27T17:26:04.352Z,100935.03
2023-03-27T17:26:24.072Z,100934.19
2023-03-27T17:26:38.164Z,100935.03
2023-03-27T17:26:50.924Z,100940.34
2023-03-27T17:27:04.223Z,100939.47
2023-03-27T17:27:18.591Z,100941.19
2023-03-27T17:27:31.541Z,100934.84
2023-03-27T17:27:45.152Z,100940.06
2023-03-27T17:27:57.792Z,100938.38
2023-03-27T17:28:10.571Z,100935.72
2023-03-27T17:28:23.283Z,100942.81
2023-03-27T17:28:36.378Z,100937.59
2023-03-27T17:28:49.134Z,100944.69
2023-03-27T17:29:03.338Z,100939.47
2023-03-27T17:29:18.017Z,100941.25
2023-03-27T17:29:31.477Z,100935.22
2023-03-27T17:29:44.336Z,100939.63
2023-03-27T17:29:57.639Z,100940.59
2023-03-27T17:30:11.157Z,100939.81
2023-03-27T17:30:38.067Z,100941.63
2023-03-27T17:31:04.041Z,100937.94
2023-03-27T17:31:18.954Z,100941.50
2023-03-27T17:31:33.198Z,100944.28
2023-03-27T17:31:46.196Z,100946.91
2023-03-27T17:32:01.098Z,100941.69
2023-03-27T17:32:13.752Z,100941.75
2023-03-27T17:32:26.964Z,100947.19
2023-03-27T17:32:39.968Z,100936.56
2023-03-27T17:32:53.081Z,100941.88
2023-03-27T17:33:05.857Z,100941.00
2023-03-27T17:33:20.913Z,100947.31
2023-03-27T17:33:34.030Z,100943.06
2023-03-27T17:33:46.956Z,100947.50
2023-03-27T17:34:00.268Z,100939.63
2023-03-27T17:34:13.215Z,100940.47
2023-03-27T17:34:26.033Z,100948.53
2023-03-27T17:34:40.066Z,100943.31
2023-03-27T17:34:52.862Z,100943.38
2023-03-27T17:35:06.360Z,100947.84
2023-03-27T17:35:19.047Z,100946.09
2023-03-27T17:35:31.986Z,100940.81
2023-03-27T17:35:44.795Z,100945.25
2023-03-27T17:35:58.684Z,100945.25
2023-03-27T17:36:14.469Z,100942.69
2023-03-27T17:36:39.816Z,100938.41
2023-03-27T17:36:56.902Z,100942.03
2023-03-27T17:37:12.493Z,100942.03
2023-03-27T17:37:25.975Z,100943.91
2023-03-27T17:37:38.634Z,100951.94
2023-03-27T17:37:51.371Z,100948.44
2023-03-27T17:38:03.972Z,100947.59
2023-03-27T17:38:19.105Z,100944.16
2023-03-27T17:38:32.688Z,100950.41
2023-03-27T17:38:45.753Z,100946.97
2023-03-27T17:39:01.392Z,100940.03
2023-03-27T17:39:14.112Z,100946.28
2023-03-27T17:39:27.047Z,100944.59
2023-03-27T17:39:39.693Z,100942.69
2023-03-27T17:39:53.358Z,100952.44
2023-03-27T17:40:09.778Z,100943.88
2023-03-27T17:40:22.574Z,100944.59
2023-03-27T17:40:39.409Z,100948.16
2023-03-27T17:40:52.373Z,100945.50
2023-03-27T17:41:06.998Z,100945.59
2023-03-27T17:41:20.344Z,100947.47
2023-03-27T17:41:33.055Z,100944.81
2023-03-27T17:41:45.940Z,100945.75
2023-03-27T17:41:58.562Z,100942.34
2023-03-27T17:42:11.243Z,100944.91
2023-03-27T17:42:24.975Z,100949.31
2023-03-27T17:42:37.690Z,100948.66
2023-03-27T17:42:50.468Z,100946.94
2023-03-27T17:43:03.090Z,100947.88
2023-03-27T17:43:15.858Z,100939.94
2023-03-27T17:43:28.566Z,100948.81
2023-03-27T17:43:42.279Z,100948.72
2023-03-27T17:43:54.949Z,100948.81
2023-03-27T17:44:10.529Z,100946.94
2023-03-27T17:44:23.128Z,100945.22
2023-03-27T17:44:38.096Z,100944.38
2023-03-27T17:44:50.845Z,100955.06
2023-03-27T17:45:05.439Z,100946.31
2023-03-27T17:45:18.237Z,100950.69
2023-03-27T17:45:30.976Z,100953.31
2023-03-27T17:45:43.941Z,100950.69
2023-03-27T17:45:56.910Z,100948.03
2023-03-27T17:46:13.828Z,100945.38
2023-03-27T17:46:26.799Z,100949.69
2023-03-27T17:46:39.678Z,100948.81
2023-03-27T17:46:52.388Z,100944.38
2023-03-27T17:47:06.328Z,100947.72
2023-03-27T17:47:19.071Z,100955.78
2023-03-27T17:47:32.692Z,100949.78
2023-03-27T17:47:45.867Z,100948.16
2023-03-27T17:47:58.567Z,100948.34
2023-03-27T17:48:12.030Z,100950.28
2023-03-27T17:48:26.152Z,100952.22
2023-03-27T17:48:38.907Z,100954.09
2023-03-27T17:48:52.527Z,100950.69
2023-03-27T17:49:05.570Z,100949.16
2023-03-27T17:49:18.397Z,100949.16
2023-03-27T17:49:31.922Z,100952.72
2023-03-27T17:49:45.249Z,100945.88
2023-03-27T17:49:58.091Z,100951.28
2023-03-27T17:50:12.055Z,100953.03
2023-03-27T17:50:24.691Z,100946.03
2023-03-27T17:50:37.655Z,100950.50
2023-03-27T17:51:01.544Z,100948.78
2023-03-27T17:51:21.604Z,100961.31
2023-03-27T17:51:35.705Z,100956.97
2023-03-27T17:51:48.465Z,100953.53
2023-03-27T17:52:02.886Z,100956.97
2023-03-27T17:52:15.881Z,100949.97
2023-03-27T17:52:28.675Z,100960.56
2023-03-27T17:52:42.471Z,100958.84
2023-03-27T17:52:55.127Z,100954.47
2023-03-27T17:53:07.978Z,100953.59
2023-03-27T17:53:21.067Z,100960.69
2023-03-27T17:53:33.844Z,100961.66
2023-03-27T17:53:46.777Z,100959.00
2023-03-27T17:54:00.671Z,100960.88
2023-03-27T17:54:13.553Z,100959.16
2023-03-27T17:54:26.386Z,100958.38
2023-03-27T17:54:39.287Z,100960.16
2023-03-27T17:54:52.104Z,100961.13
2023-03-27T17:55:05.715Z,100955.88
2023-03-27T17:55:18.904Z,100959.38
2023-03-27T17:55:32.693Z,100957.69
2023-03-27T17:55:45.559Z,100959.47
2023-03-27T17:55:59.366Z,100963.06
2023-03-27T17:56:12.294Z,100958.59
2023-03-27T17:56:26.143Z,100956.91
2023-03-27T17:56:40.965Z,100963.97
2023-03-27T17:56:53.629Z,100959.63
2023-03-27T17:57:06.786Z,100963.22
2023-03-27T17:57:19.736Z,100961.50
2023-03-27T17:57:33.579Z,100958.00
2023-03-27T17:57:49.201Z,100962.44
2023-03-27T17:58:09.955Z,100960.59
2023-03-27T17:58:23.373Z,100960.59
2023-03-27T17:58:37.192Z,100964.94
2023-03-27T17:58:50.934Z,100964.06
2023-03-27T17:59:05.940Z,100962.34
2023-03-27T17:59:19.028Z,100960.66
2023-03-27T17:59:32.025Z,100962.44
2023-03-27T17:59:46.434Z,100968.66
2023-03-27T17:59:59.254Z,100967.81
2023-03-27T18:00:15.210Z,100962.59
2023-03-27T18:00:28.041Z,100965.22
2023-03-27T18:00:41.520Z,100962.59
2023-03-27T18:00:55.577Z,100967.88
2023-03-27T18:01:17.072Z,100972.41
2023-03-27T18:01:31.635Z,100967.09
2023-03-27T18:01:45.488Z,100964.38
2023-03-27T18:01:58.764Z,100967.09
2023-03-27T18:02:16.129Z,100964.38
2023-03-27T18:02:29.162Z,100964.47
2023-03-27T18:02:43.899Z,100960.97
2023-03-27T18:02:57.772Z,100966.25
2023-03-27T18:03:10.874Z,100964.56
2023-03-27T18:03:25.237Z,100967.22
2023-03-27T18:03:38.114Z,100967.22
2023-03-27T18:03:51.699Z,100968.13
2023-03-27T18:04:06.007Z,100967.28
2023-03-27T18:04:19.002Z,100967.28
2023-03-27T18:04:33.172Z,100961.19
2023-03-27T18:04:48.769Z,100963.84
2023-03-27T18:05:01.437Z,100970.84
2023-03-27T18:05:15.902Z,100964.75
2023-03-27T18:05:28.976Z,100972.72
2023-03-27T18:05:43.237Z,100967.50
2023-03-27T18:05:56.138Z,100967.41
2023-03-27T18:06:09.075Z,100967.50
2023-03-27T18:06:22.903Z,100966.63
2023-03-27T18:06:36.625Z,100974.56
2023-03-27T18:06:49.241Z,100973.81
2023-03-27T18:07:02.098Z,100970.28
2023-03-27T18:07:14.832Z,100963.22
2023-03-27T18:07:27.886Z,100972.94
2023-03-27T18:07:42.362Z,100974.75
2023-03-27T18:07:55.382Z,100972.16
2023-03-27T18:08:10.290Z,100971.31
2023-03-27T18:08:23.097Z,100969.63
2023-03-27T18:08:35.993Z,100978.47
2023-03-27T18:08:48.805Z,100972.31
2023-03-27T18:09:01.534Z,100968.84
2023-03-27T18:09:15.495Z,100970.59
2023-03-27T18:09:28.255Z,100969.75
2023-03-27T18:09:41.688Z,100970.69
2023-03-27T18:09:54.303Z,100968.06
2023-03-27T18:10:10.058Z,100968.97
2023-03-27T18:10:23.262Z,100974.38
2023-03-27T18:10:36.475Z,100970.84
2023-03-27T18:10:51.477Z,100966.50
2023-03-27T18:11:09.192Z,100969.19
2023-03-27T18:11:22.089Z,100970.06
2023-03-27T18:11:34.908Z,100966.56
2023-03-27T18:11:47.551Z,100966.63
2023-03-27T18:12:00.232Z,100973.66
2023-03-27T18:12:14.302Z,100963.13
2023-03-27T18:12:27.293Z,100972.88
2023-03-27T18:12:40.289Z,100969.44
2023-03-27T18:12:52.939Z,100967.75
2023-03-27T18:13:05.696Z,100970.38
2023-03-27T18:13:19.793Z,100971.31
2023-03-27T18:13:32.581Z,100974.91
2023-03-27T18:13:51.252Z,100972.25
2023-03-27T18:14:04.147Z,100972.25
2023-03-27T18:14:17.561Z,100964.38
2023-03-27T18:14:31.186Z,100967.81
2023-03-27T18:14:43.899Z,100970.38
2023-03-27T18:14:57.445Z,100973.94
2023-03-27T18:15:10.689Z,100966.97
2023-03-27T18:15:23.714Z,100969.50
2023-03-27T18:15:36.620Z,100972.25
2023-03-27T18:15:55.402Z,100967.09
2023-03-27T18:16:10.738Z,100967.88
2023-03-27T18:16:23.723Z,100967.03
2023-03-27T18:16:36.930Z,100965.28
2023-03-27T18:16:49.810Z,100968.81
2023-03-27T18:17:02.585Z,100967.09
2023-03-27T18:17:20.852Z,100970.59
2023-03-27T18:17:35.545Z,100965.38
2023-03-27T18:17:48.450Z,100974.19
2023-03-27T18:18:01.451Z,100978.63
2023-03-27T18:18:14.108Z,100966.31
2023-03-27T18:18:28.289Z,100971.59
2023-03-27T18:18:42.153Z,100973.41
2023-03-27T18:18:55.747Z,100965.47
2023-03-27T18:19:09.334Z,100965.53
2023-03-27T18:19:24.114Z,100975.19
2023-03-27T18:19:36.905Z,100967.38
2023-03-27T18:19:49.730Z,100969.13
2023-03-27T18:20:02.588Z,100967.38
2023-03-27T18:20:15.780Z,100967.38
2023-03-27T18:20:28.417Z,100970.13
2023-03-27T18:20:42.898Z,100972.78
2023-03-27T18:20:55.689Z,100975.50
2023-03-27T18:21:08.625Z,100968.50
2023-03-27T18:21:21.711Z,100971.16
2023-03-27T18:21:34.549Z,100971.16
2023-03-27T18:21:47.448Z,100969.41
2023-03-27T18:22:01.875Z,100971.16
2023-03-27T18:22:14.656Z,100975.66
2023-03-27T18:22:27.883Z,100976.56
2023-03-27T18:22:40.881Z,100975.72
2023-03-27T18:22:53.652Z,100970.50
2023-03-27T18:23:06.786Z,100974.00
2023-03-27T18:23:20.855Z,100978.44
2023-03-27T18:23:35.107Z,100970.56
2023-03-27T18:23:48.090Z,100974.16
2023-03-27T18:24:00.772Z,100970.66
2023-03-27T18:24:13.340Z,100972.44
2023-03-27T18:24:26.263Z,100978.59
2023-03-27T18:24:40.516Z,100971.56
2023-03-27T18:24:53.350Z,100975.16
2023-03-27T18:25:08.709Z,100974.38
2023-03-27T18:25:21.442Z,100975.28
2023-03-27T18:25:34.362Z,100980.59
2023-03-27T18:25:47.235Z,100981.53
2023-03-27T18:26:03.678Z,100976.31
2023-03-27T18:26:17.761Z,100974.59
2023-03-27T18:26:30.720Z,100979.06
2023-03-27T18:26:43.526Z,100979.13
2023-03-27T18:26:56.231Z,100978.31
2023-03-27T18:27:08.885Z,100973.03
2023-03-27T18:27:21.665Z,100980.13
2023-03-27T18:27:34.692Z,100981.88
2023-03-27T18:27:48.260Z,100976.69
2023-03-27T18:28:02.115Z,100977.59
2023-03-27T18:28:15.046Z,100972.31
2023-03-27T18:28:27.681Z,100977.59
2023-03-27T18:28:40.413Z,100982.06
2023-03-27T18:28:55.259Z,100971.53
2023-03-27T18:29:08.218Z,100975.06
2023-03-27T18:29:21.272Z,100977.69
2023-03-27T18:29:34.465Z,100972.47
2023-03-27T18:29:47.284Z,100980.41
2023-03-27T18:30:01.618Z,100976.03
2023-03-27T18:30:17.564Z,100977.91
2023-03-27T18:30:32.211Z,100973.56
2023-03-27T18:30:45.070Z,100985.84
2023-03-27T18:30:59.210Z,100973.63
2023-03-27T18:31:12.803Z,100978.06
2023-03-27T18:31:25.905Z,100981.56
2023-03-27T18:31:39.704Z,100979.84
2023-03-27T18:31:52.420Z,100977.28
2023-03-27T18:32:05.246Z,100971.13
2023-03-27T18:32:17.877Z,100976.47
2023-03-27T18:32:30.694Z,100978.28
2023-03-27T18:32:45.196Z,100973.91
2023-03-27T18:32:58.350Z,100975.69
2023-03-27T18:33:12.402Z,100979.28
2023-03-27T18:33:25.294Z,100971.34
2023-03-27T18:33:39.595Z,100974.91
2023-03-27T18:33:52.465Z,100975.84
2023-03-27T18:34:05.172Z,100976.78
2023-03-27T18:34:18.983Z,100975.00
2023-03-27T18:34:31.778Z,100976.78
2023-03-27T18:34:45.346Z,100979.50
2023-03-27T18:34:58.122Z,100980.34
2023-03-27T18:35:13.980Z,100973.34
2023-03-27T18:35:26.644Z,100983.91
2023-03-27T18:35:42.688Z,100981.28
2023-03-27T18:35:57.310Z,100977.84
2023-03-27T18:36:11.594Z,100978.78
2023-03-27T18:36:24.782Z,100977.06
2023-03-27T18:36:37.671Z,100974.41
2023-03-27T18:36:51.817Z,100973.50
2023-03-27T18:37:04.624Z,100977.94
2023-03-27T18:37:18.391Z,100982.44
2023-03-27T18:37:30.956Z,100974.50
2023-03-27T18:37:44.781Z,100985.94
2023-03-27T18:37:58.008Z,100978.06
2023-03-27T18:38:11.747Z,100983.34
2023-03-27T18:38:26.452Z,100977.22
2023-03-27T18:38:40.178Z,100982.50
2023-03-27T18:38:53.079Z,100981.66
2023-03-27T18:39:06.730Z,100976.41
2023-03-27T18:39:19.675Z,100979.06
2023-03-27T18:39:36.460Z,100980.78
2023-03-27T18:39:49.098Z,100979.06
2023-03-27T18:40:01.860Z,100975.56
2023-03-27T18:40:16.724Z,100978.28
2023-03-27T18:40:32.734Z,100976.47
2023-03-27T18:40:48.055Z,100986.22
2023-03-27T18:41:01.707Z,100975.63
2023-03-27T18:41:15.610Z,100979.22
2023-03-27T18:41:28.242Z,100979.34
2023-03-27T18:41:41.220Z,100975.78
2023-03-27T18:41:54.994Z,100981.06
2023-03-27T18:42:08.798Z,100984.63
2023-03-27T18:42:22.667Z,100988.22
2023-03-27T18:42:35.821Z,100983.84
2023-03-27T18:42:48.687Z,100979.50
2023-03-27T18:43:01.385Z,100983.94
2023-03-27T18:43:14.165Z,100984.84
2023-03-27T18:43:27.024Z,100988.34
2023-03-27T18:43:41.312Z,100982.22
2023-03-27T18:43:54.040Z,100979.63
2023-03-27T18:44:07.026Z,100985.78
2023-03-27T18:44:21.519Z,100986.66
2023-03-27T18:44:34.964Z,100985.84
2023-03-27T18:44:48.622Z,100982.34
2023-03-27T18:45:01.319Z,100982.34
2023-03-27T18:45:15.588Z,100980.63
2023-03-27T18:45:28.317Z,100987.72
2023-03-27T18:45:41.000Z,100982.44
2023-03-27T18:45:57.526Z,100988.66
2023-03-27T18:46:16.536Z,100986.91
2023-03-27T18:46:29.664Z,100987.78
2023-03-27T18:46:42.463Z,100988.72
2023-03-27T18:46:55.080Z,100984.34
2023-03-27T18:47:07.892Z,100981.78
2023-03-27T18:47:21.684Z,100980.06
2023-03-27T18:47:36.254Z,100989.78
2023-03-27T18:47:49.221Z,100976.63
2023-03-27T18:48:01.978Z,100987.19
2023-03-27T18:48:16.391Z,100989.84
2023-03-27T18:48:31.065Z,100989.03
2023-03-27T18:48:49.010Z,100984.75
2023-03-27T18:49:10.263Z,100988.25
2023-03-27T18:49:30.452Z,100990.13
2023-03-27T18:49:44.404Z,100990.22
2023-03-27T18:49:57.665Z,100990.25
2023-03-27T18:50:13.059Z,100987.63
2023-03-27T18:50:26.129Z,100989.47
2023-03-27T18:50:39.231Z,100993.06
2023-03-27T18:50:55.189Z,100986.09
2023-03-27T18:51:07.874Z,100987.88
2023-03-27T18:51:23.958Z,100989.75
2023-03-27T18:51:36.835Z,100986.25
2023-03-27T18:51:49.437Z,100990.69
2023-03-27T18:52:02.110Z,100988.94
2023-03-27T18:52:14.904Z,100984.59
2023-03-27T18:52:28.161Z,100985.47
2023-03-27T18:52:42.512Z,100992.53
2023-03-27T18:52:55.358Z,100991.75
2023-03-27T18:53:08.338Z,100990.00
2023-03-27T18:53:21.064Z,100990.91
2023-03-27T18:53:33.749Z,100997.09
2023-03-27T18:53:47.669Z,100991.91
2023-03-27T18:54:00.791Z,100989.25
2023-03-27T18:54:13.617Z,101000.72
2023-03-27T18:54:26.519Z,100995.44
2023-03-27T18:54:39.880Z,100989.38
2023-03-27T18:54:52.639Z,100981.59
2023-03-27T18:55:08.660Z,100992.16
2023-03-27T18:55:21.265Z,100994.81
2023-03-27T18:55:33.949Z,100995.72
2023-03-27T18:55:48.893Z,100992.28
2023-03-27T18:56:02.095Z,100986.34
2023-03-27T18:56:15.122Z,100997.72
2023-03-27T18:56:27.932Z,100999.56
2023-03-27T18:56:41.585Z,100991.63
2023-03-27T18:56:54.433Z,100996.97
2023-03-27T18:57:07.278Z,100996.13
2023-03-27T18:57:20.213Z,101000.56
2023-03-27T18:57:34.351Z,100999.75
2023-03-27T18:57:48.013Z,100991.91
2023-03-27T18:58:00.767Z,101001.56
2023-03-27T18:58:14.536Z,101005.09
2023-03-27T18:58:28.487Z,100992.84
2023-03-27T18:58:42.211Z,101000.75
2023-03-27T18:58:55.349Z,100998.19
2023-03-27T18:59:11.153Z,100987.66
2023-03-27T18:59:23.830Z,100996.53
2023-03-27T18:59:36.491Z,100995.75
2023-03-27T18:59:50.344Z,100996.75
2023-03-27T19:00:06.697Z,101002.97
2023-03-27T19:00:20.727Z,100992.63
2023-03-27T19:00:33.456Z,100990.91
2023-03-27T19:00:46.481Z,100990.97
2023-03-27T19:01:00.016Z,100988.47
2023-03-27T19:01:12.940Z,100996.41
2023-03-27T19:01:26.905Z,100998.19
2023-03-27T19:01:39.687Z,100993.88
2023-03-27T19:01:52.419Z,100994.03
2023-03-27T19:02:05.167Z,100996.66
2023-03-27T19:02:18.301Z,100987.88
2023-03-27T19:02:32.271Z,100991.44
2023-03-27T19:02:47.998Z,100999.41
2023-03-27T19:03:00.991Z,100996.84
2023-03-27T19:03:15.536Z,100989.00
2023-03-27T19:03:36.377Z,100994.41
2023-03-27T19:03:51.789Z,100990.97
2023-03-27T19:04:06.272Z,100993.63
2023-03-27T19:04:19.205Z,100994.53
2023-03-27T19:04:31.784Z,100998.09
2023-03-27T19:04:45.406Z,100998.09
2023-03-27T19:04:58.008Z,101000.75
2023-03-27T19:05:10.932Z,100995.53
2023-03-27T19:05:24.594Z,100993.81
2023-03-27T19:05:37.250Z,101002.59
2023-03-27T19:05:51.265Z,100992.03
2023-03-27T19:06:06.697Z,100996.50
2023-03-27T19:06:19.726Z,101008.75
2023-03-27T19:06:33.352Z,100996.50
2023-03-27T19:06:47.393Z,100996.50
2023-03-27T19:07:00.043Z,100996.50
2023-03-27T19:07:13.891Z,101000.06
2023-03-27T19:07:27.288Z,101000.06
2023-03-27T19:07:44.946Z,100993.94
2023-03-27T19:07:59.449Z,100995.78
2023-03-27T19:08:13.256Z,101005.34
2023-03-27T19:08:25.932Z,101001.84
2023-03-27T19:08:42.013Z,101002.78
2023-03-27T19:08:54.637Z,100997.50
2023-03-27T19:09:07.528Z,101001.00
2023-03-27T19:09:23.494Z,100996.63
2023-03-27T19:09:46.099Z,100991.34
2023-03-27T19:09:58.924Z,100994.06
2023-03-27T19:10:11.640Z,101001.97
2023-03-27T19:10:24.864Z,101001.13
2023-03-27T19:10:38.243Z,101001.13
2023-03-27T19:10:52.602Z,100994.97
2023-03-27T19:11:06.615Z,100998.50
2023-03-27T19:11:19.600Z,100998.50
2023-03-27T19:11:33.548Z,100993.22
2023-03-27T19:11:47.472Z,100996.75
2023-03-27T19:12:00.758Z,100995.84
2023-03-27T19:12:13.595Z,100995.84
2023-03-27T19:12:27.252Z,100994.13
2023-03-27T19:12:39.922Z,101002.97
2023-03-27T19:12:53.277Z,100995.06
2023-03-27T19:13:08.483Z,100996.81
2023-03-27T19:13:22.413Z,100994.19
2023-03-27T19:13:35.378Z,100995.06
2023-03-27T19:13:48.159Z,100998.53
2023-03-27T19:14:01.891Z,100995.06
2023-03-27T19:14:14.791Z,100988.00
2023-03-27T19:14:27.864Z,100988.91
2023-03-27T19:14:41.637Z,101000.34
2023-03-27T19:14:54.391Z,100989.78
2023-03-27T19:15:19.225Z,100989.78
2023-03-27T19:15:34.249Z,100995.06
2023-03-27T19:15:49.102Z,101000.34
2023-03-27T19:16:02.033Z,100990.63
2023-03-27T19:16:27.693Z,100992.41
2023-03-27T19:16:40.855Z,100994.19
2023-03-27T19:16:55.249Z,100984.59
2023-03-27T19:17:08.000Z,100988.03
2023-03-27T19:17:21.153Z,100997.75
2023-03-27T19:17:33.833Z,100990.75
2023-03-27T19:17:46.736Z,100993.31
2023-03-27T19:17:59.383Z,101003.03
2023-03-27T19:18:13.346Z,100989.88
2023-03-27T19:18:29.955Z,100989.03
2023-03-27T19:18:42.630Z,100991.63
2023-03-27T19:18:56.863Z,100999.53
2023-03-27T19:19:09.974Z,100996.91
2023-03-27T19:19:22.923Z,100992.53
2023-03-27T19:19:35.545Z,100989.88
2023-03-27T19:19:48.353Z,100989.88
2023-03-27T19:20:02.061Z,100989.03
2023-03-27T19:20:15.347Z,100998.75
2023-03-27T19:20:28.454Z,100987.19
2023-03-27T19:20:43.806Z,100986.41
2023-03-27T19:20:57.031Z,100989.03
2023-03-27T19:21:09.897Z,100989.03
2023-03-27T19:21:24.390Z,100996.91
2023-03-27T19:21:37.065Z,100992.53
2023-03-27T19:21:50.223Z,100987.19
2023-03-27T19:22:05.912Z,100988.19
2023-03-27T19:22:18.662Z,100986.34
2023-03-27T19:22:32.241Z,100992.53
2023-03-27T19:22:44.876Z,100987.19
2023-03-27T19:22:57.502Z,100991.63
2023-03-27T19:23:10.281Z,100989.03
2023-03-27T19:23:23.108Z,100993.47
2023-03-27T19:23:36.048Z,100989.88
2023-03-27T19:23:49.733Z,100985.56
2023-03-27T19:24:02.424Z,100994.31
2023-03-27T19:24:15.459Z,100997.84
2023-03-27T19:24:28.128Z,100997.81
2023-03-27T19:24:41.291Z,100992.59
2023-03-27T19:24:53.893Z,100997.00